Reedley, CA

3:57 PM PST on December 17, 2014 (GMT -0800)
Dinuba | Change Station
CLOSE
Current Station
Personal Weather Station
Location: Dinuba, CA
Elevation: 325 ft
Nearby Weather Stations

Elev 325 ft 36.56 °N, 119.41 °W | Updated 8 minutes ago

Mostly Cloudy
Mostly Cloudy
56.3 °F
Feels Like 56.3 °F
N
1.7
Wind Variable Wind from ENE

Today
High -- | Low -- °F
--% Chance of Precip.
Yesterday
High -- | Low -- °F
Precip. -- in
7:04 AM 4:43 PM
Waning Crescent, 19% visible
Pressure 30.08 in
Visibility 10.0 miles
Clouds Few 2600 ft
Mostly Cloudy 3400 ft
Dew Point 50 °F
Humidity 81%
Rainfall 0.48 in
Snow Depth Not available.
UV 1 out of 12
Pollen .20 out of 12
Air Quality Not available.
Flu Activity Not available.
METAR KFAT 172253Z 04004KT 10SM FEW026 BKN034 14/08 A3008 RMK AO2 SLP185 MTNS OBSC DSNT N-E-S T01390078

More Conditions Fewer Conditions

Pressure 30.08 in
Visibility 10.0 miles
Clouds Few 2600 ft
Mostly Cloudy 3400 ft
Dew Point 50 °F
Humidity 81%
Rainfall 0.48 in
Snow Depth Not available.
UV 1 out of 12
Pollen .20 out of 12
Air Quality Not available.
Flu Activity Not available.
METAR KFAT 172253Z 04004KT 10SM FEW026 BKN034 14/08 A3008 RMK AO2 SLP185 MTNS OBSC DSNT N-E-S T01390078

More Conditions Fewer Conditions

10-Day Weather Forecast

Almanac

Astronomy

Dec. 17, 2014 Rise Set
Actual Time
Civil Twilight
Nautical Twilight
Astronomical Twilight
Moon
Length of Visible Light
Length of Day
Tomorrow will be .
, % of the Moon is Illuminated

Today's Extremes

State Highs State Lows

Community

WunderPhotos

Upload Photos

1,778,825 photos uploaded!

WunderBlogs® & News

Nearby

Air Quality

  Air Quality AQ Index Pollutant
Not available.

Snow Depth

Station Depth Elevation

Earthquake Activity

City Distance Mag. Time & Date
Minimum magnitude displayed is 2.5.

Coastal Water Temperatures

Place Temperature

Nearby Weather Stations